Time;durP1;ratioP1;P1;durP2;ratioP2;P2;SDS_P1;SDS_P2;PMS_P1;PMS_P2;Temp;Humidity;BMP_temperature;BMP_pressure;BME280_temperature;BME280_humidity;BME280_pressure;Samples;Min_cycle;Max_cycle;Signal;HPM_P1;HPM_P2
2023/08/09 00:00:46;;;;;;;2.50;1.10;;;18.90;99.90;;;;;;5053024;28;20075;-44
2023/08/09 00:03:12;;;;;;;2.90;1.15;;;18.90;99.90;;;;;;5052995;28;20606;-41
2023/08/09 00:05:38;;;;;;;1.08;0.85;;;19.00;99.90;;;;;;5054487;28;20033;-40
2023/08/09 00:08:03;;;;;;;1.25;0.90;;;18.90;99.90;;;;;;5054494;28;20025;-38
2023/08/09 00:10:29;;;;;;;1.85;1.00;;;19.00;99.90;;;;;;5052619;28;20031;-39
2023/08/09 00:12:55;;;;;;;1.67;0.90;;;18.90;99.90;;;;;;5052921;28;20033;-40
2023/08/09 00:15:20;;;;;;;0.90;0.68;;;18.90;99.90;;;;;;5052908;28;20032;-39
2023/08/09 00:17:46;;;;;;;1.08;0.98;;;18.90;99.90;;;;;;5052780;28;20025;-39
2023/08/09 00:20:12;;;;;;;3.80;1.20;;;19.00;99.90;;;;;;5052788;28;20381;-40
2023/08/09 00:22:38;;;;;;;1.27;0.93;;;19.00;99.90;;;;;;5052703;28;20103;-40
2023/08/09 00:25:05;;;;;;;2.80;1.00;;;18.90;99.90;;;;;;5052701;28;20033;-38
2023/08/09 00:27:31;;;;;;;1.90;1.17;;;18.90;99.90;;;;;;5052700;28;20032;-40
2023/08/09 00:29:56;;;;;;;1.48;0.95;;;19.00;99.90;;;;;;5052353;28;20025;-37
2023/08/09 00:32:22;;;;;;;1.45;0.90;;;19.00;99.90;;;;;;5052597;28;20071;-40
2023/08/09 00:34:48;;;;;;;1.00;0.90;;;18.90;99.90;;;;;;5052499;28;20029;-39
2023/08/09 00:37:13;;;;;;;1.58;1.00;;;18.90;99.90;;;;;;5052511;28;20124;-39
2023/08/09 00:39:39;;;;;;;1.25;0.95;;;18.90;99.90;;;;;;5051997;28;20028;-39
2023/08/09 00:42:05;;;;;;;1.67;1.10;;;18.90;99.90;;;;;;5051031;28;20093;-40
2023/08/09 00:44:31;;;;;;;1.52;1.00;;;18.90;99.90;;;;;;5052457;28;20020;-39
2023/08/09 00:46:57;;;;;;;1.27;0.95;;;19.00;99.90;;;;;;5052289;28;20028;-40
2023/08/09 00:49:23;;;;;;;2.55;1.00;;;18.90;99.90;;;;;;5051193;28;20227;-40
2023/08/09 00:51:49;;;;;;;1.77;0.90;;;19.00;99.90;;;;;;5052206;28;20017;-39
2023/08/09 00:54:16;;;;;;;1.42;1.00;;;19.00;99.90;;;;;;5052567;28;20036;-39
2023/08/09 00:56:43;;;;;;;1.60;0.95;;;19.00;99.90;;;;;;5052047;28;20032;-39
2023/08/09 00:59:08;;;;;;;1.13;0.90;;;18.90;99.90;;;;;;5051837;28;20021;-39
2023/08/09 01:01:34;;;;;;;2.08;0.90;;;19.00;99.90;;;;;;5051981;28;20100;-39
2023/08/09 01:04:00;;;;;;;1.83;0.88;;;18.90;99.90;;;;;;5051904;28;20025;-38
2023/08/09 01:06:37;;;;;;;1.55;0.98;;;18.90;99.90;;;;;;5052291;28;20029;-39
2023/08/09 01:09:15;;;;;;;1.63;0.90;;;19.00;99.90;;;;;;5051468;28;20484;-40
2023/08/09 01:11:54;;;;;;;1.08;0.80;;;19.00;99.90;;;;;;5051834;28;20024;-39
2023/08/09 01:14:25;;;;;;;1.98;0.90;;;19.00;99.90;;;;;;5051743;28;20484;-40
2023/08/09 01:16:53;;;;;;;1.23;0.90;;;18.90;99.90;;;;;;5051804;28;20029;-40
2023/08/09 01:19:26;;;;;;;1.23;0.93;;;18.90;99.90;;;;;;5051335;28;20112;-39
2023/08/09 01:21:56;;;;;;;1.98;0.90;;;19.00;99.90;;;;;;5051665;28;20103;-38
2023/08/09 01:24:22;;;;;;;1.85;1.00;;;18.90;99.90;;;;;;5051927;28;20033;-40
2023/08/09 01:26:48;;;;;;;1.70;0.90;;;18.90;99.90;;;;;;5051546;28;20100;-40
2023/08/09 01:29:14;;;;;;;1.30;0.75;;;18.90;99.90;;;;;;5051233;28;20082;-39
2023/08/09 01:31:40;;;;;;;1.58;1.15;;;19.00;99.90;;;;;;5051474;28;20104;-40
2023/08/09 01:34:06;;;;;;;3.13;1.17;;;18.90;99.90;;;;;;5051254;28;20113;-40
2023/08/09 01:36:36;;;;;;;1.67;1.13;;;18.90;99.90;;;;;;5051466;28;20029;-40
2023/08/09 01:39:11;;;;;;;1.63;1.13;;;18.90;99.90;;;;;;5051212;28;20431;-40
2023/08/09 01:41:37;;;;;;;2.63;0.80;;;18.90;99.90;;;;;;5051469;28;20032;-39
2023/08/09 01:44:07;;;;;;;2.00;1.00;;;18.90;99.90;;;;;;5051255;28;20506;-40
2023/08/09 01:46:33;;;;;;;2.35;1.15;;;18.90;99.90;;;;;;5051277;28;20040;-39
2023/08/09 01:49:10;;;;;;;1.33;0.85;;;18.90;99.90;;;;;;5051007;28;20364;-38
2023/08/09 01:51:36;;;;;;;1.73;0.93;;;18.90;99.90;;;;;;5051233;28;20104;-40
2023/08/09 01:54:02;;;;;;;1.52;1.00;;;18.90;99.90;;;;;;5049859;28;20032;-40
2023/08/09 01:56:27;;;;;;;1.33;0.90;;;18.90;99.90;;;;;;5051147;28;20017;-40
2023/08/09 01:58:53;;;;;;;1.02;0.90;;;18.90;99.90;;;;;;5050888;28;20036;-40
2023/08/09 02:01:18;;;;;;;1.60;0.90;;;18.90;99.90;;;;;;5050935;28;20023;-42
2023/08/09 02:03:44;;;;;;;1.92;1.10;;;18.90;99.90;;;;;;5051008;28;20017;-41
2023/08/09 02:06:10;;;;;;;2.13;1.00;;;19.00;99.90;;;;;;5051021;28;20025;-40
2023/08/09 02:08:35;;;;;;;1.83;1.08;;;18.90;99.90;;;;;;5051142;28;20021;-39
2023/08/09 02:11:01;;;;;;;1.48;0.93;;;18.90;99.90;;;;;;5050753;28;20086;-39
2023/08/09 02:13:27;;;;;;;1.00;0.90;;;18.90;99.90;;;;;;5051266;28;20061;-39
2023/08/09 02:15:53;;;;;;;1.55;1.00;;;18.90;99.90;;;;;;5051166;28;20021;-40
2023/08/09 02:18:18;;;;;;;1.38;0.90;;;18.90;99.90;;;;;;5051006;28;20395;-40
2023/08/09 02:20:44;;;;;;;1.67;1.00;;;18.90;99.90;;;;;;5050627;28;20024;-39
2023/08/09 02:23:10;;;;;;;1.30;0.80;;;18.90;99.90;;;;;;5050719;28;20036;-40
2023/08/09 02:25:35;;;;;;;1.33;1.00;;;18.90;99.90;;;;;;5050907;28;20480;-39
2023/08/09 02:28:01;;;;;;;1.77;1.15;;;18.90;99.90;;;;;;5050799;28;20029;-41
2023/08/09 02:30:27;;;;;;;1.58;0.90;;;18.90;99.90;;;;;;5050655;28;20132;-39
2023/08/09 02:32:52;;;;;;;1.20;1.00;;;18.90;99.90;;;;;;5050775;28;20123;-40
2023/08/09 02:35:18;;;;;;;1.30;0.85;;;18.90;99.90;;;;;;5050810;28;20370;-42
2023/08/09 02:37:44;;;;;;;1.55;0.90;;;18.90;99.90;;;;;;5050771;28;20512;-40
2023/08/09 02:40:11;;;;;;;1.95;1.13;;;18.90;99.90;;;;;;5050596;28;20420;-38
2023/08/09 02:42:37;;;;;;;1.25;0.80;;;18.90;99.90;;;;;;5050580;28;20036;-41
2023/08/09 02:45:04;;;;;;;1.25;1.00;;;18.90;99.90;;;;;;5050791;28;20503;-40
2023/08/09 02:47:29;;;;;;;2.15;1.13;;;18.90;99.90;;;;;;5050700;28;20514;-40
2023/08/09 02:49:55;;;;;;;1.67;1.10;;;18.90;99.90;;;;;;5050385;28;20025;-38
2023/08/09 02:52:21;;;;;;;1.05;0.80;;;18.90;99.90;;;;;;5050749;28;20024;-39
2023/08/09 02:54:47;;;;;;;3.40;1.00;;;18.90;99.90;;;;;;5050534;28;20029;-39
2023/08/09 02:57:13;;;;;;;2.03;0.90;;;18.90;99.90;;;;;;5050523;28;20028;-39
2023/08/09 02:59:39;;;;;;;1.70;1.02;;;18.90;99.90;;;;;;5050375;28;20029;-39
2023/08/09 03:02:05;;;;;;;1.52;1.00;;;18.90;99.90;;;;;;5050558;28;20028;-38
2023/08/09 03:04:31;;;;;;;1.63;1.00;;;18.90;99.90;;;;;;5050364;28;20021;-40
2023/08/09 03:06:57;;;;;;;2.95;0.93;;;18.90;99.90;;;;;;5050539;28;20100;-40
2023/08/09 03:09:23;;;;;;;2.72;1.02;;;18.90;99.90;;;;;;5050195;28;20112;-38
2023/08/09 03:11:49;;;;;;;1.45;0.88;;;18.90;99.90;;;;;;5051156;28;20052;-38
2023/08/09 03:14:14;;;;;;;1.80;1.10;;;18.90;99.90;;;;;;5054426;28;20029;-38
2023/08/09 03:16:41;;;;;;;1.73;1.00;;;18.90;99.90;;;;;;5054010;28;20107;-39
2023/08/09 03:19:07;;;;;;;3.10;1.10;;;18.90;99.90;;;;;;5053746;28;20049;-40
2023/08/09 03:21:34;;;;;;;1.27;0.77;;;18.90;99.90;;;;;;5053910;28;20484;-38
2023/08/09 03:23:59;;;;;;;2.30;0.90;;;18.90;99.90;;;;;;5053720;28;20508;-40
2023/08/09 03:26:26;;;;;;;1.83;1.00;;;18.90;99.90;;;;;;5053709;28;20056;-39
2023/08/09 03:28:52;;;;;;;2.10;1.17;;;18.90;99.90;;;;;;5053621;28;20115;-44
2023/08/09 03:31:18;;;;;;;0.95;0.70;;;18.90;99.90;;;;;;5053641;28;20100;-43
2023/08/09 03:33:44;;;;;;;1.65;0.80;;;18.90;99.90;;;;;;5053568;28;20033;-40
2023/08/09 03:36:12;;;;;;;2.17;1.05;;;18.90;99.90;;;;;;5054006;28;20032;-41
2023/08/09 03:38:38;;;;;;;1.50;0.80;;;18.90;99.90;;;;;;5053671;28;20544;-43
2023/08/09 03:41:03;;;;;;;1.15;1.00;;;18.90;99.90;;;;;;5053294;28;20037;-38
2023/08/09 03:43:29;;;;;;;1.60;1.10;;;18.90;99.90;;;;;;5053399;28;20064;-41
2023/08/09 03:45:55;;;;;;;1.80;1.00;;;18.90;99.90;;;;;;5068888;28;20064;-40
2023/08/09 03:48:21;;;;;;;2.45;1.02;;;18.90;99.90;;;;;;5053479;28;20033;-45
2023/08/09 03:50:47;;;;;;;1.40;0.75;;;18.90;99.90;;;;;;5054313;28;20428;-42
2023/08/09 03:53:12;;;;;;;1.50;0.88;;;18.90;99.90;;;;;;5055244;28;20021;-39
2023/08/09 03:55:38;;;;;;;1.38;0.90;;;18.90;99.90;;;;;;5054461;28;20384;-40
2023/08/09 03:58:03;;;;;;;0.85;0.70;;;18.80;99.90;;;;;;5053320;28;20396;-39
2023/08/09 04:00:29;;;;;;;1.00;0.80;;;18.90;99.90;;;;;;5052946;28;20021;-39
2023/08/09 04:02:56;;;;;;;1.80;1.17;;;18.90;99.90;;;;;;5053045;28;20519;-39
2023/08/09 04:05:22;;;;;;;2.10;1.10;;;18.90;99.90;;;;;;5053102;28;20029;-39
2023/08/09 04:07:47;;;;;;;2.05;1.00;;;18.90;99.90;;;;;;5053103;28;20068;-39
2023/08/09 04:10:13;;;;;;;1.10;0.85;;;18.80;99.90;;;;;;5052619;28;20025;-40
2023/08/09 04:12:39;;;;;;;1.73;1.10;;;18.80;99.90;;;;;;5053212;28;20049;-42
2023/08/09 04:15:06;;;;;;;1.35;0.90;;;18.90;99.90;;;;;;5052927;28;20021;-39
2023/08/09 04:17:32;;;;;;;1.58;1.05;;;18.80;99.90;;;;;;5052902;28;20023;-38
2023/08/09 04:19:58;;;;;;;1.33;1.00;;;18.80;99.90;;;;;;5052611;28;20029;-38
2023/08/09 04:22:24;;;;;;;2.10;1.05;;;18.80;99.90;;;;;;5052809;28;20033;-40
2023/08/09 04:24:50;;;;;;;1.27;0.73;;;18.80;99.90;;;;;;5051275;28;20424;-38
2023/08/09 04:27:16;;;;;;;1.20;0.90;;;18.80;99.90;;;;;;5052644;28;20064;-39
2023/08/09 04:29:42;;;;;;;2.10;1.10;;;18.80;99.90;;;;;;5052376;28;20053;-39
2023/08/09 04:32:07;;;;;;;1.50;0.90;;;18.80;99.90;;;;;;5052633;28;20486;-39
2023/08/09 04:34:33;;;;;;;1.15;1.00;;;18.90;99.90;;;;;;5052347;28;20029;-40
2023/08/09 04:36:59;;;;;;;1.13;0.90;;;18.90;99.90;;;;;;5052480;28;20025;-40
2023/08/09 04:39:25;;;;;;;1.88;1.13;;;18.80;99.90;;;;;;5052121;28;20078;-38
2023/08/09 04:41:50;;;;;;;1.20;0.93;;;18.80;99.90;;;;;;5052420;28;20154;-40
2023/08/09 04:44:16;;;;;;;2.83;0.90;;;18.80;99.90;;;;;;5052316;28;20021;-39
2023/08/09 04:46:42;;;;;;;1.45;1.00;;;18.80;99.90;;;;;;5050968;28;20032;-39
2023/08/09 04:49:08;;;;;;;1.50;1.00;;;18.80;99.90;;;;;;5051969;28;20033;-39
2023/08/09 04:51:33;;;;;;;1.70;1.02;;;18.80;99.90;;;;;;5052209;28;20021;-40
2023/08/09 04:53:59;;;;;;;1.52;0.80;;;18.80;99.90;;;;;;5051912;28;20079;-40
2023/08/09 04:56:25;;;;;;;1.88;1.00;;;18.80;99.90;;;;;;5052115;28;20028;-39
2023/08/09 04:58:50;;;;;;;1.38;1.00;;;18.80;99.90;;;;;;5052316;28;20017;-39
2023/08/09 05:01:16;;;;;;;1.80;1.15;;;18.80;99.90;;;;;;5052003;28;20031;-39
2023/08/09 05:03:41;;;;;;;1.30;0.88;;;18.80;99.90;;;;;;5051958;28;20504;-40
2023/08/09 05:06:08;;;;;;;2.50;0.90;;;18.80;99.90;;;;;;5052022;28;20017;-38
2023/08/09 05:08:34;;;;;;;1.70;1.20;;;18.80;99.90;;;;;;5052337;28;20391;-40
2023/08/09 05:10:59;;;;;;;1.25;0.90;;;18.80;99.90;;;;;;5051741;28;20021;-40
2023/08/09 05:13:25;;;;;;;2.38;0.93;;;18.80;99.90;;;;;;5051888;28;20029;-39
2023/08/09 05:15:51;;;;;;;2.00;1.10;;;18.80;99.90;;;;;;5051949;28;20100;-39
2023/08/09 05:18:17;;;;;;;1.25;0.90;;;18.80;99.90;;;;;;5051689;28;20125;-40
2023/08/09 05:20:43;;;;;;;1.38;1.10;;;18.80;99.90;;;;;;5051441;28;20056;-41
2023/08/09 05:23:08;;;;;;;1.52;0.90;;;18.80;99.90;;;;;;5051728;28;20561;-39
2023/08/09 05:25:34;;;;;;;1.10;0.95;;;18.80;99.90;;;;;;5051611;28;20033;-39
2023/08/09 05:28:00;;;;;;;0.73;0.70;;;18.80;99.90;;;;;;5051613;28;20391;-37
2023/08/09 05:30:25;;;;;;;1.02;0.80;;;18.80;99.90;;;;;;5051540;28;20033;-39
2023/08/09 05:32:51;;;;;;;1.77;1.20;;;18.80;99.90;;;;;;5051379;28;20028;-40
2023/08/09 05:35:17;;;;;;;2.72;0.98;;;18.80;99.90;;;;;;5051591;28;20032;-40
2023/08/09 05:37:42;;;;;;;2.10;0.90;;;18.80;99.90;;;;;;5051359;28;20551;-39
2023/08/09 05:40:13;;;;;;;1.48;1.00;;;18.80;99.90;;;;;;5051155;28;20040;-38
2023/08/09 05:42:40;;;;;;;1.20;1.00;;;18.80;99.90;;;;;;5051534;28;20119;-43
2023/08/09 05:45:06;;;;;;;1.15;1.05;;;18.80;99.90;;;;;;5051670;28;20029;-40
2023/08/09 05:47:32;;;;;;;1.92;0.90;;;18.80;99.90;;;;;;5051261;28;20028;-39
2023/08/09 05:49:58;;;;;;;1.17;0.80;;;18.80;99.90;;;;;;5050974;28;20396;-39
2023/08/09 05:52:23;;;;;;;1.83;0.90;;;18.80;99.90;;;;;;5051219;28;20024;-38
2023/08/09 05:54:49;;;;;;;1.58;1.05;;;18.80;99.90;;;;;;5051067;28;20039;-39
2023/08/09 05:57:15;;;;;;;1.63;1.02;;;18.80;99.90;;;;;;5051208;28;20033;-39
2023/08/09 05:59:40;;;;;;;1.65;1.00;;;18.80;99.90;;;;;;5050951;28;20028;-39
2023/08/09 06:02:06;;;;;;;1.27;1.00;;;18.80;99.90;;;;;;5051145;28;20067;-39
2023/08/09 06:04:33;;;;;;;1.15;0.90;;;18.80;99.90;;;;;;5050997;28;20023;-41
2023/08/09 06:06:58;;;;;;;2.20;0.90;;;18.80;99.90;;;;;;5051030;28;20128;-39
2023/08/09 06:09:24;;;;;;;3.33;1.05;;;18.80;99.90;;;;;;5050799;28;20459;-39
2023/08/09 06:11:50;;;;;;;1.33;0.80;;;18.80;99.90;;;;;;5051316;28;20391;-39
2023/08/09 06:14:15;;;;;;;1.70;0.95;;;18.80;99.90;;;;;;5051021;28;20053;-39
2023/08/09 06:16:45;;;;;;;3.00;0.90;;;18.80;99.90;;;;;;5051082;28;20021;-40
2023/08/09 06:19:11;;;;;;;1.05;0.80;;;18.80;99.90;;;;;;5050775;28;20400;-43
2023/08/09 06:21:38;;;;;;;1.33;0.90;;;18.80;99.90;;;;;;5050956;28;20025;-40
2023/08/09 06:24:05;;;;;;;1.15;0.90;;;18.80;99.90;;;;;;5050705;28;20120;-40
2023/08/09 06:26:34;;;;;;;1.45;0.90;;;18.90;99.90;;;;;;5050976;28;20029;-39
2023/08/09 06:29:00;;;;;;;1.75;1.10;;;18.80;99.90;;;;;;5050588;28;20385;-40
2023/08/09 06:31:26;;;;;;;1.75;1.02;;;18.80;99.90;;;;;;5050854;28;20128;-38
2023/08/09 06:33:53;;;;;;;1.23;0.88;;;18.80;99.90;;;;;;5050669;28;20462;-38
2023/08/09 06:36:19;;;;;;;0.88;0.70;;;18.80;99.90;;;;;;5050829;28;20380;-40
2023/08/09 06:38:44;;;;;;;3.35;1.13;;;18.80;99.90;;;;;;5050610;28;20024;-45
2023/08/09 06:41:10;;;;;;;1.63;1.05;;;18.80;99.90;;;;;;5050656;28;20423;-43
2023/08/09 06:43:35;;;;;;;5.03;1.40;;;18.70;99.90;;;;;;5050649;28;20029;-42
2023/08/09 06:46:01;;;;;;;4.03;1.45;;;18.70;99.90;;;;;;5050781;28;20032;-43
2023/08/09 06:48:29;;;;;;;4.22;1.48;;;18.60;99.90;;;;;;5053917;28;20033;-44
2023/08/09 06:50:58;;;;;;;6.40;1.48;;;18.70;99.90;;;;;;5054447;28;20021;-42
2023/08/09 06:53:24;;;;;;;6.07;1.30;;;18.70;99.90;;;;;;5054396;28;20034;-41
2023/08/09 06:55:50;;;;;;;4.47;1.45;;;18.70;99.90;;;;;;5054457;28;20021;-47
2023/08/09 06:58:16;;;;;;;3.53;1.10;;;18.70;99.90;;;;;;5054390;28;20036;-42
2023/08/09 07:00:42;;;;;;;2.78;1.30;;;18.70;99.90;;;;;;5054055;28;20605;-45
2023/08/09 07:03:07;;;;;;;3.85;1.10;;;18.70;99.90;;;;;;5054176;28;20040;-42
2023/08/09 07:05:33;;;;;;;2.30;1.30;;;18.80;99.90;;;;;;5054249;28;20029;-44
2023/08/09 07:07:59;;;;;;;3.42;1.30;;;18.70;99.90;;;;;;5054222;28;20029;-44
2023/08/09 07:10:25;;;;;;;3.40;1.30;;;18.70;99.90;;;;;;5053919;28;20318;-42
2023/08/09 07:12:50;;;;;;;3.35;1.30;;;18.80;99.90;;;;;;5054019;28;20023;-42
2023/08/09 07:15:16;;;;;;;1.50;1.00;;;18.80;99.90;;;;;;5054132;28;20052;-43
2023/08/09 07:17:42;;;;;;;2.05;1.13;;;18.80;99.90;;;;;;5053954;28;20043;-44
2023/08/09 07:20:11;;;;;;;2.22;1.20;;;18.80;99.90;;;;;;5053751;28;20454;-43
2023/08/09 07:22:38;;;;;;;1.83;1.30;;;18.80;99.90;;;;;;5053776;28;20129;-44
2023/08/09 07:25:05;;;;;;;1.73;1.25;;;18.80;99.90;;;;;;5054507;28;20064;-47
2023/08/09 07:27:32;;;;;;;2.75;1.10;;;18.80;99.90;;;;;;5053980;28;20059;-43
2023/08/09 07:29:58;;;;;;;3.20;1.58;;;18.80;99.90;;;;;;5053450;28;20021;-47
2023/08/09 07:32:23;;;;;;;2.65;1.20;;;18.80;99.90;;;;;;5053840;28;20628;-49
2023/08/09 07:34:49;;;;;;;3.95;1.30;;;18.80;99.90;;;;;;5055442;28;20023;-41
2023/08/09 07:37:15;;;;;;;2.63;1.13;;;18.80;99.90;;;;;;5054904;28;20013;-43
2023/08/09 07:39:41;;;;;;;2.70;1.13;;;18.80;99.90;;;;;;5053536;28;20142;-42
2023/08/09 07:42:06;;;;;;;2.50;1.50;;;18.80;99.90;;;;;;5053586;28;20025;-42
2023/08/09 07:44:32;;;;;;;3.08;1.30;;;18.80;99.90;;;;;;5053354;28;20387;-42
2023/08/09 07:46:58;;;;;;;1.75;1.10;;;18.80;99.90;;;;;;5052145;28;20022;-43
2023/08/09 07:49:25;;;;;;;1.88;0.98;;;18.80;99.90;;;;;;5053086;28;20037;-40
2023/08/09 07:51:50;;;;;;;2.88;1.30;;;18.80;99.90;;;;;;5053446;28;20557;-42
2023/08/09 07:54:16;;;;;;;2.85;1.20;;;18.80;99.90;;;;;;5053261;28;20025;-42
2023/08/09 07:56:42;;;;;;;1.75;1.20;;;18.80;99.90;;;;;;5053672;28;20056;-42
2023/08/09 07:59:07;;;;;;;2.30;1.10;;;18.80;99.90;;;;;;5051313;28;20078;-42
2023/08/09 08:01:33;;;;;;;3.47;1.38;;;18.80;99.90;;;;;;5053126;28;20032;-41
2023/08/09 08:03:59;;;;;;;1.63;0.90;;;18.80;99.90;;;;;;5053091;28;20022;-41
2023/08/09 08:06:24;;;;;;;13.85;1.48;;;18.80;99.90;;;;;;5053198;28;20480;-42
2023/08/09 08:08:51;;;;;;;1.92;1.25;;;18.80;99.90;;;;;;5053031;28;20032;-41
2023/08/09 08:11:16;;;;;;;2.38;1.20;;;18.90;99.90;;;;;;5052932;28;20025;-41
2023/08/09 08:13:42;;;;;;;2.65;1.00;;;18.90;99.90;;;;;;5052823;28;20128;-42
2023/08/09 08:16:08;;;;;;;1.88;1.08;;;18.90;99.90;;;;;;5052820;28;20021;-42
2023/08/09 08:18:33;;;;;;;2.10;1.20;;;18.90;99.90;;;;;;5052869;28;20028;-42
2023/08/09 08:21:00;;;;;;;1.85;1.05;;;18.90;99.90;;;;;;5052635;28;20090;-42
2023/08/09 08:23:25;;;;;;;2.08;1.10;;;18.90;99.90;;;;;;5052584;28;20120;-43
2023/08/09 08:25:51;;;;;;;2.00;0.90;;;18.90;99.90;;;;;;5052777;28;20108;-44
2023/08/09 08:28:17;;;;;;;2.42;1.00;;;18.90;99.90;;;;;;5052744;28;20095;-40
2023/08/09 08:30:42;;;;;;;2.17;1.00;;;18.90;99.90;;;;;;5052281;28;20488;-42
2023/08/09 08:33:08;;;;;;;2.63;1.42;;;19.00;99.90;;;;;;5052485;28;20031;-42
2023/08/09 08:35:36;;;;;;;1.90;1.25;;;19.00;99.90;;;;;;5052561;28;20100;-42
2023/08/09 08:38:02;;;;;;;1.52;1.10;;;19.00;99.90;;;;;;5052670;28;20443;-42
2023/08/09 08:40:31;;;;;;;1.20;0.90;;;19.00;99.90;;;;;;5052669;28;20040;-41
2023/08/09 08:42:59;;;;;;;1.45;1.10;;;19.00;99.90;;;;;;5052765;28;20040;-42
2023/08/09 08:45:24;;;;;;;1.95;0.90;;;19.00;99.90;;;;;;5052476;28;20020;-37
2023/08/09 08:47:50;;;;;;;3.40;1.20;;;19.00;99.90;;;;;;5051062;28;20024;-40
2023/08/09 08:50:17;;;;;;;5.22;1.40;;;19.00;99.90;;;;;;5051480;28;20167;-42
2023/08/09 08:52:45;;;;;;;4.68;1.25;;;19.00;99.90;;;;;;5051843;28;20017;-41
2023/08/09 08:55:12;;;;;;;8.60;1.25;;;19.00;99.90;;;;;;5052212;28;20508;-40
2023/08/09 08:57:39;;;;;;;6.03;1.27;;;19.00;99.90;;;;;;5051972;28;20021;-39
2023/08/09 09:00:16;;;;;;;4.82;1.83;;;19.00;99.90;;;;;;5051741;28;20031;-40
2023/08/09 09:02:43;;;;;;;5.95;1.20;;;19.00;99.90;;;;;;5052002;28;20025;-40
2023/08/09 09:05:10;;;;;;;3.30;1.13;;;19.00;99.90;;;;;;5052012;28;20110;-40
2023/08/09 09:07:36;;;;;;;3.15;1.10;;;19.00;99.90;;;;;;5051984;28;20031;-40
2023/08/09 09:10:06;;;;;;;3.67;1.20;;;19.00;99.90;;;;;;5050881;28;20033;-39
2023/08/09 09:12:36;;;;;;;2.65;1.35;;;19.00;99.90;;;;;;5051765;28;20025;-41
2023/08/09 09:15:04;;;;;;;3.10;1.15;;;19.00;99.90;;;;;;5051860;28;20017;-39
2023/08/09 09:17:35;;;;;;;3.70;1.35;;;19.00;99.90;;;;;;5051885;28;20021;-41
2023/08/09 09:20:01;;;;;;;3.78;1.38;;;19.00;99.90;;;;;;5051581;28;20032;-42
2023/08/09 09:22:29;;;;;;;2.28;1.30;;;19.10;99.90;;;;;;5051660;28;20025;-41
2023/08/09 09:24:59;;;;;;;1.80;1.05;;;19.10;99.90;;;;;;5051566;28;20072;-40
2023/08/09 09:27:33;;;;;;;3.92;1.40;;;19.10;99.90;;;;;;5051617;28;20082;-41
2023/08/09 09:30:07;;;;;;;2.30;1.13;;;19.10;99.90;;;;;;5051310;28;20021;-42
2023/08/09 09:32:33;;;;;;;2.38;1.02;;;19.10;99.90;;;;;;5051506;28;20419;-41
2023/08/09 09:34:59;;;;;;;5.40;1.30;;;19.10;99.90;;;;;;5051526;28;20206;-42
2023/08/09 09:37:26;;;;;;;3.53;1.00;;;19.10;99.90;;;;;;5051392;28;20072;-41
2023/08/09 09:39:52;;;;;;;3.22;1.10;;;19.10;99.90;;;;;;5051184;28;20033;-41
2023/08/09 09:42:28;;;;;;;2.92;1.20;;;19.10;99.90;;;;;;5051454;28;20086;-42
2023/08/09 09:45:04;;;;;;;2.03;1.10;;;19.10;99.90;;;;;;5051278;28;20031;-41
2023/08/09 09:47:33;;;;;;;1.90;1.08;;;19.10;99.90;;;;;;5051264;28;20090;-41
2023/08/09 09:49:59;;;;;;;2.83;1.23;;;19.10;99.90;;;;;;5050941;28;20366;-42
2023/08/09 09:52:28;;;;;;;3.00;1.13;;;19.10;99.90;;;;;;5051266;28;20032;-41
2023/08/09 09:54:56;;;;;;;3.30;1.23;;;19.10;99.90;;;;;;5051174;28;20609;-42
2023/08/09 09:57:22;;;;;;;1.85;1.20;;;19.10;99.90;;;;;;5051234;28;20408;-42
2023/08/09 09:59:47;;;;;;;2.03;1.00;;;19.10;99.90;;;;;;5051016;28;20021;-40
2023/08/09 10:02:15;;;;;;;1.92;1.00;;;19.10;99.90;;;;;;5051167;28;20025;-37
2023/08/09 10:04:43;;;;;;;4.20;1.40;;;19.10;99.90;;;;;;5051210;28;20392;-41
2023/08/09 10:07:09;;;;;;;2.28;1.20;;;19.10;99.90;;;;;;5051119;28;20017;-42
2023/08/09 10:09:35;;;;;;;3.63;1.13;;;19.10;99.90;;;;;;5050757;28;20087;-45
2023/08/09 10:12:05;;;;;;;3.03;1.20;;;19.10;99.90;;;;;;5049710;28;20392;-38
2023/08/09 10:14:32;;;;;;;6.55;1.15;;;19.10;99.90;;;;;;5051438;28;20040;-40
2023/08/09 10:16:59;;;;;;;3.65;1.67;;;19.10;99.90;;;;;;5050971;28;20021;-44
2023/08/09 10:19:26;;;;;;;2.83;1.30;;;19.10;99.90;;;;;;5050774;28;20033;-42
2023/08/09 10:21:54;;;;;;;2.42;1.10;;;19.20;99.90;;;;;;5053576;28;20036;-43
2023/08/09 10:24:20;;;;;;;3.60;1.30;;;19.20;99.90;;;;;;5055266;28;20087;-42
2023/08/09 10:26:49;;;;;;;3.92;1.40;;;19.10;99.90;;;;;;5055051;28;20029;-49
2023/08/09 10:29:23;;;;;;;2.33;1.35;;;19.20;99.90;;;;;;5054535;28;20032;-45
2023/08/09 10:31:53;;;;;;;;;;;19.10;99.90;;;;;;5055395;28;20388;-42
2023/08/09 10:34:41;;;;;;;2.65;1.08;;;19.20;99.90;;;;;;5054990;28;19911;-44
2023/08/09 10:37:09;;;;;;;2.45;1.20;;;19.20;99.90;;;;;;5054837;28;20104;-44
2023/08/09 10:39:36;;;;;;;2.97;1.30;;;19.20;99.90;;;;;;5054482;28;20557;-43
2023/08/09 10:42:09;;;;;;;2.60;1.52;;;19.20;99.90;;;;;;5054686;28;20028;-43
2023/08/09 10:44:44;;;;;;;3.88;1.40;;;19.20;99.90;;;;;;5054806;28;20056;-45
2023/08/09 10:47:14;;;;;;;2.50;1.27;;;19.20;99.90;;;;;;5054708;28;20025;-44
2023/08/09 10:49:48;;;;;;;2.75;1.30;;;19.20;99.90;;;;;;5054296;28;20087;-38
2023/08/09 10:52:14;;;;;;;;;;;19.20;99.90;;;;;;5054907;28;20067;-43
2023/08/09 10:54:40;;;;;;;3.83;1.25;;;19.20;99.90;;;;;;5054331;28;19916;-41
2023/08/09 10:57:10;;;;;;;2.05;1.10;;;19.20;99.90;;;;;;5054503;28;20013;-43
2023/08/09 10:59:41;;;;;;;3.50;1.10;;;19.20;99.90;;;;;;5054177;28;20029;-42
2023/08/09 11:02:07;;;;;;;3.53;1.30;;;19.20;99.90;;;;;;5054382;28;20021;-42
2023/08/09 11:04:33;;;;;;;2.42;1.10;;;19.20;99.90;;;;;;5054795;28;20023;-43
2023/08/09 11:07:00;;;;;;;1.63;0.82;;;19.20;99.90;;;;;;5054269;28;20040;-43
2023/08/09 11:09:32;;;;;;;1.63;1.00;;;19.20;99.90;;;;;;5053950;28;20037;-48
2023/08/09 11:11:59;;;;;;;2.35;1.42;;;19.20;99.90;;;;;;5054422;28;20032;-48
2023/08/09 11:14:25;;;;;;;2.75;1.15;;;19.20;99.90;;;;;;5054111;28;20021;-45
2023/08/09 11:16:51;;;;;;;2.42;1.13;;;19.30;99.90;;;;;;5054687;28;20025;-46
2023/08/09 11:19:21;;;;;;;2.05;1.08;;;19.20;99.90;;;;;;5056001;28;20442;-42
2023/08/09 11:21:47;;;;;;;1.52;0.98;;;19.20;99.90;;;;;;5054861;28;20029;-42
2023/08/09 11:24:14;;;;;;;2.05;1.05;;;19.30;99.90;;;;;;5053702;28;20086;-41
2023/08/09 11:26:48;;;;;;;1.85;1.20;;;19.30;99.90;;;;;;5053916;28;20021;-41
2023/08/09 11:29:15;;;;;;;1.15;0.88;;;19.30;99.90;;;;;;5053605;28;20021;-41
2023/08/09 11:31:42;;;;;;;1.80;0.95;;;19.30;99.90;;;;;;5053774;28;20025;-41
2023/08/09 11:34:11;;;;;;;1.80;1.20;;;19.30;99.90;;;;;;5052973;28;20025;-43
2023/08/09 11:36:36;;;;;;;1.73;1.02;;;19.30;99.90;;;;;;5053733;28;20067;-40
2023/08/09 11:39:04;;;;;;;2.08;1.05;;;19.30;99.90;;;;;;5053430;28;20075;-44
2023/08/09 11:41:46;;;;;;;2.85;1.00;;;19.30;99.90;;;;;;5053867;28;20025;-41
2023/08/09 11:44:14;;;;;;;1.60;0.80;;;19.30;99.90;;;;;;5053490;28;20623;-43
2023/08/09 11:46:44;;;;;;;2.28;1.42;;;19.30;99.90;;;;;;5053528;28;20476;-41
2023/08/09 11:49:09;;;;;;;1.73;1.10;;;19.40;99.90;;;;;;5053141;28;20029;-42
2023/08/09 11:51:36;;;;;;;2.55;0.93;;;19.40;99.90;;;;;;5053356;28;20388;-41
2023/08/09 11:54:02;;;;;;;2.38;1.27;;;19.40;99.90;;;;;;5053246;28;20495;-39
2023/08/09 11:56:36;;;;;;;1.63;1.02;;;19.40;99.90;;;;;;5052024;28;20035;-41
2023/08/09 11:59:04;;;;;;;2.28;1.15;;;19.40;99.90;;;;;;5051766;28;20044;-41
2023/08/09 12:01:38;;;;;;;1.10;0.90;;;19.40;99.90;;;;;;5053229;28;20484;-41
2023/08/09 12:04:08;;;;;;;2.15;1.00;;;19.40;99.90;;;;;;5053626;28;20105;-46
2023/08/09 12:06:34;;;;;;;1.40;0.90;;;19.40;99.90;;;;;;5053174;28;20036;-41
2023/08/09 12:09:00;;;;;;;2.55;1.13;;;19.40;99.90;;;;;;5052846;28;20021;-41
2023/08/09 12:11:26;;;;;;;2.30;1.00;;;19.40;99.90;;;;;;5052886;28;20423;-43
2023/08/09 12:13:52;;;;;;;2.03;0.90;;;19.40;99.90;;;;;;5052914;28;20056;-41
2023/08/09 12:16:17;;;;;;;1.40;0.82;;;19.40;99.90;;;;;;5052959;28;20059;-43
2023/08/09 12:18:43;;;;;;;1.88;1.10;;;19.40;99.90;;;;;;5052870;28;20104;-42
2023/08/09 12:21:08;;;;;;;1.33;0.80;;;19.40;99.90;;;;;;5052764;28;20453;-41
2023/08/09 12:23:36;;;;;;;1.50;1.10;;;19.40;99.90;;;;;;5052689;28;20048;-43
2023/08/09 12:26:03;;;;;;;1.85;0.90;;;19.40;99.90;;;;;;5052731;28;20028;-40
2023/08/09 12:28:29;;;;;;;1.48;0.93;;;19.40;99.90;;;;;;5052702;28;20519;-41
2023/08/09 12:30:55;;;;;;;1.80;1.05;;;19.40;99.90;;;;;;5052693;28;20108;-43
2023/08/09 12:33:21;;;;;;;1.23;0.90;;;19.40;99.90;;;;;;5052615;28;20103;-42
2023/08/09 12:35:46;;;;;;;1.30;1.05;;;19.40;99.90;;;;;;5052633;28;20021;-42
2023/08/09 12:38:12;;;;;;;10.23;1.40;;;19.40;99.90;;;;;;5052484;28;20500;-45
2023/08/09 12:40:38;;;;;;;3.92;1.02;;;19.40;99.90;;;;;;5052369;28;20492;-44
2023/08/09 12:43:04;;;;;;;2.08;1.08;;;19.50;99.90;;;;;;5052515;28;20075;-42
2023/08/09 12:45:30;;;;;;;2.00;0.95;;;19.60;99.90;;;;;;5051750;28;20021;-43